Time;durP1;ratioP1;P1;durP2;ratioP2;P2;SDS_P1;SDS_P2;PMS_P1;PMS_P2;Temp;Humidity;BMP_temperature;BMP_pressure;BME280_temperature;BME280_humidity;BME280_pressure;Samples;Min_cycle;Max_cycle;Signal;HPM_P1;HPM_P2
2022/10/01 00:01:18;;;;;;;19.50;9.53;;;;;;;;;;6245575;22;20184;-80
2022/10/01 00:03:48;;;;;;;20.13;9.70;;;;;;;;;;6273033;22;20759;-77
2022/10/01 00:06:16;;;;;;;26.00;10.60;;;;;;;;;;6245412;22;20173;-77
2022/10/01 00:08:47;;;;;;;19.60;10.27;;;;;;;;;;6272842;22;20197;-79
2022/10/01 00:11:16;;;;;;;19.77;9.53;;;;;;;;;;6272287;22;20176;-78
2022/10/01 00:13:44;;;;;;;22.03;9.87;;;;;;;;;;6245044;22;20544;-78
2022/10/01 00:16:13;;;;;;;19.17;9.40;;;;;;;;;;6271633;22;20651;-78
2022/10/01 00:18:41;;;;;;;18.97;9.70;;;;;;;;;;6272266;22;20197;-79
2022/10/01 00:21:11;;;;;;;16.23;9.10;;;;;;;;;;6271633;22;20652;-78
2022/10/01 00:23:40;;;;;;;17.53;9.20;;;;;;;;;;6271752;22;20174;-78
2022/10/01 00:26:10;;;;;;;18.27;9.20;;;;;;;;;;6272396;22;20696;-78
2022/10/01 00:28:38;;;;;;;21.43;9.27;;;;;;;;;;6273725;22;20267;-78
2022/10/01 00:31:06;;;;;;;18.97;9.03;;;;;;;;;;6270490;22;20207;-79
2022/10/01 00:33:35;;;;;;;14.67;8.90;;;;;;;;;;6272261;22;20181;-77
2022/10/01 00:36:02;;;;;;;17.57;9.27;;;;;;;;;;6245007;22;20177;-78
2022/10/01 00:38:31;;;;;;;18.93;9.83;;;;;;;;;;6245207;22;20197;-77
2022/10/01 00:40:59;;;;;;;21.77;8.73;;;;;;;;;;6270775;22;20174;-78
2022/10/01 00:43:28;;;;;;;18.43;8.77;;;;;;;;;;6270820;22;20178;-77
2022/10/01 00:45:58;;;;;;;19.40;9.53;;;;;;;;;;6270615;22;20235;-77
2022/10/01 00:48:26;;;;;;;16.33;8.27;;;;;;;;;;6271223;22;20276;-78
2022/10/01 00:50:53;;;;;;;15.67;7.50;;;;;;;;;;6243758;22;20184;-79
2022/10/01 00:53:21;;;;;;;15.77;8.43;;;;;;;;;;6270235;22;20523;-78
2022/10/01 00:55:54;;;;;;;14.77;7.37;;;;;;;;;;6271464;22;20517;-78
2022/10/01 00:58:22;;;;;;;16.07;7.27;;;;;;;;;;6269012;22;20582;-79
2022/10/01 01:00:50;;;;;;;13.53;7.20;;;;;;;;;;6270008;22;20240;-79
2022/10/01 01:03:18;;;;;;;14.87;6.77;;;;;;;;;;6243932;22;20632;-78
2022/10/01 01:05:46;;;;;;;14.27;7.03;;;;;;;;;;6218658;22;20713;-79
2022/10/01 01:08:14;;;;;;;12.70;6.80;;;;;;;;;;6270315;22;20257;-79
2022/10/01 01:10:48;;;;;;;13.37;7.27;;;;;;;;;;6274023;22;20178;-79
2022/10/01 01:13:21;;;;;;;13.43;6.33;;;;;;;;;;6270797;22;20635;-79
2022/10/01 01:15:52;;;;;;;16.13;6.53;;;;;;;;;;6270984;22;20172;-77
2022/10/01 01:18:22;;;;;;;12.53;7.07;;;;;;;;;;6270567;22;20198;-78
2022/10/01 01:21:06;;;;;;;14.10;6.43;;;;;;;;;;6244007;22;20503;-78
2022/10/01 01:23:44;;;;;;;12.83;6.70;;;;;;;;;;6242527;22;20182;-78
2022/10/01 01:26:17;;;;;;;15.50;6.93;;;;;;;;;;6272564;22;20531;-78
2022/10/01 01:28:49;;;;;;;18.77;6.23;;;;;;;;;;6246373;22;20193;-79
2022/10/01 01:31:21;;;;;;;15.67;6.80;;;;;;;;;;6272128;22;20197;-79
2022/10/01 01:33:50;;;;;;;12.23;6.50;;;;;;;;;;6272247;22;20650;-79
2022/10/01 01:36:22;;;;;;;13.47;6.43;;;;;;;;;;6272103;22;20177;-78
2022/10/01 01:38:53;;;;;;;11.87;6.77;;;;;;;;;;6272319;22;20217;-78
2022/10/01 01:41:21;;;;;;;18.90;7.10;;;;;;;;;;6272174;22;20242;-78
2022/10/01 01:43:52;;;;;;;15.33;6.63;;;;;;;;;;6245364;22;20184;-79
2022/10/01 01:46:20;;;;;;;12.10;6.37;;;;;;;;;;6272261;22;20172;-78
2022/10/01 01:48:52;;;;;;;14.27;6.93;;;;;;;;;;6272484;22;20579;-78
2022/10/01 01:51:24;;;;;;;15.57;6.70;;;;;;;;;;6246010;22;20567;-78
2022/10/01 01:53:52;;;;;;;13.57;6.93;;;;;;;;;;6272465;22;20165;-78
2022/10/01 01:56:19;;;;;;;12.23;6.20;;;;;;;;;;6278891;22;20184;-77
2022/10/01 01:58:48;;;;;;;10.93;6.50;;;;;;;;;;6243751;22;20668;-78
2022/10/01 02:01:33;;;;;;;13.23;7.00;;;;;;;;;;6271208;22;20178;-77
2022/10/01 02:04:04;;;;;;;17.70;6.23;;;;;;;;;;6273008;22;20246;-77
2022/10/01 02:06:35;;;;;;;13.10;6.93;;;;;;;;;;6271594;22;20177;-77
2022/10/01 02:09:05;;;;;;;12.67;6.70;;;;;;;;;;6245969;22;20178;-78
2022/10/01 02:11:35;;;;;;;12.33;6.87;;;;;;;;;;6244620;22;20178;-77
2022/10/01 02:14:08;;;;;;;12.53;6.33;;;;;;;;;;6271976;22;20618;-78
2022/10/01 02:16:42;;;;;;;12.00;6.43;;;;;;;;;;6272542;22;20526;-78
2022/10/01 02:19:13;;;;;;;13.63;6.60;;;;;;;;;;6245465;22;20272;-78
2022/10/01 02:21:41;;;;;;;13.10;5.93;;;;;;;;;;6244372;22;20228;-78
2022/10/01 02:24:13;;;;;;;10.33;5.63;;;;;;;;;;6271459;22;20181;-78
2022/10/01 02:26:42;;;;;;;12.03;6.33;;;;;;;;;;6272302;22;20162;-78
2022/10/01 02:29:12;;;;;;;13.03;5.77;;;;;;;;;;6273069;22;20174;-78
2022/10/01 02:31:42;;;;;;;17.40;6.10;;;;;;;;;;6245580;22;20239;-77
2022/10/01 02:34:09;;;;;;;12.67;6.20;;;;;;;;;;6272114;22;20170;-78
2022/10/01 02:36:40;;;;;;;14.90;6.73;;;;;;;;;;6271530;22;20896;-79
2022/10/01 02:39:07;;;;;;;12.93;6.30;;;;;;;;;;6272339;22;20178;-78
2022/10/01 02:41:40;;;;;;;19.17;6.60;;;;;;;;;;6271025;22;20253;-78
2022/10/01 02:44:09;;;;;;;13.17;6.47;;;;;;;;;;6271281;22;20640;-78
2022/10/01 02:46:43;;;;;;;19.17;7.57;;;;;;;;;;6270016;22;20241;-79
2022/10/01 02:49:13;;;;;;;15.03;6.67;;;;;;;;;;6272937;22;20197;-80
2022/10/01 02:51:46;;;;;;;12.80;6.20;;;;;;;;;;6270874;22;20212;-80
2022/10/01 02:54:15;;;;;;;12.07;5.90;;;;;;;;;;6272142;22;20612;-80
2022/10/01 02:59:40;;;;;;;11.60;6.13;;;;;;;;;;6147959;23;20200;-78
2022/10/01 03:02:07;;;;;;;17.27;6.63;;;;;;;;;;6244049;22;20195;-80
2022/10/01 03:04:37;;;;;;;13.00;6.40;;;;;;;;;;6245860;22;20720;-81
2022/10/01 03:07:05;;;;;;;19.23;6.87;;;;;;;;;;6274182;22;20197;-80
2022/10/01 03:09:33;;;;;;;13.83;6.77;;;;;;;;;;6246716;22;20252;-80
2022/10/01 03:12:02;;;;;;;12.83;6.03;;;;;;;;;;6272095;22;20169;-80
2022/10/01 03:14:30;;;;;;;9.87;5.80;;;;;;;;;;6272968;22;20201;-80
2022/10/01 03:16:58;;;;;;;10.27;5.83;;;;;;;;;;6273287;22;20190;-80
2022/10/01 03:19:25;;;;;;;14.57;6.27;;;;;;;;;;6246302;22;20287;-81
2022/10/01 03:21:55;;;;;;;10.80;6.00;;;;;;;;;;6272706;22;20348;-80
2022/10/01 03:24:22;;;;;;;9.97;5.93;;;;;;;;;;6272944;22;20174;-80
2022/10/01 03:26:49;;;;;;;14.53;6.13;;;;;;;;;;6273087;22;20188;-80
2022/10/01 03:29:17;;;;;;;13.47;6.00;;;;;;;;;;6272027;22;20244;-80
2022/10/01 03:31:46;;;;;;;10.80;6.03;;;;;;;;;;6270961;22;20192;-80
2022/10/01 03:34:13;;;;;;;10.67;5.40;;;;;;;;;;6245423;22;20174;-80
2022/10/01 03:36:41;;;;;;;16.83;5.93;;;;;;;;;;6243596;22;20544;-80
2022/10/01 03:39:10;;;;;;;15.17;5.60;;;;;;;;;;6271165;22;20509;-81
2022/10/01 03:41:37;;;;;;;12.53;6.00;;;;;;;;;;6242371;22;20181;-81
2022/10/01 03:44:05;;;;;;;10.60;5.70;;;;;;;;;;6271694;22;20188;-81
2022/10/01 03:46:32;;;;;;;13.47;5.87;;;;;;;;;;6270500;22;20188;-81
2022/10/01 03:49:00;;;;;;;11.77;5.90;;;;;;;;;;6271048;22;20178;-80
2022/10/01 03:51:27;;;;;;;9.83;5.27;;;;;;;;;;6271289;22;20180;-80
2022/10/01 03:53:54;;;;;;;9.70;4.97;;;;;;;;;;6270921;22;20177;-80
2022/10/01 03:56:25;;;;;;;9.97;5.37;;;;;;;;;;6270483;22;20181;-80
2022/10/01 03:58:53;;;;;;;8.57;5.20;;;;;;;;;;6270860;22;20225;-80
2022/10/01 04:01:20;;;;;;;6.37;4.47;;;;;;;;;;6243175;22;20192;-80
2022/10/01 04:03:49;;;;;;;8.43;5.17;;;;;;;;;;6271603;22;20177;-80
2022/10/01 04:06:16;;;;;;;8.97;5.67;;;;;;;;;;6244788;22;20177;-80
2022/10/01 04:08:44;;;;;;;11.70;4.83;;;;;;;;;;6271509;22;20503;-81
2022/10/01 04:11:11;;;;;;;8.20;4.57;;;;;;;;;;6270861;22;20177;-78
2022/10/01 04:13:40;;;;;;;8.90;4.70;;;;;;;;;;6243415;22;20182;-80
2022/10/01 04:16:09;;;;;;;7.83;4.47;;;;;;;;;;6271233;22;20178;-80
2022/10/01 04:18:36;;;;;;;6.43;4.40;;;;;;;;;;6243487;22;20690;-80
2022/10/01 04:21:03;;;;;;;7.30;4.57;;;;;;;;;;6270944;22;20173;-80
2022/10/01 04:23:31;;;;;;;9.23;4.00;;;;;;;;;;6271420;22;20180;-80
2022/10/01 04:26:01;;;;;;;8.40;3.80;;;;;;;;;;6271449;22;20255;-80
2022/10/01 04:28:30;;;;;;;7.00;3.83;;;;;;;;;;6270917;22;20193;-80
2022/10/01 04:33:42;;;;;;;7.90;3.77;;;;;;;;;;6269563;22;20173;-80
2022/10/01 04:36:16;;;;;;;5.90;3.50;;;;;;;;;;6270836;22;20174;-81
2022/10/01 04:38:43;;;;;;;8.10;3.47;;;;;;;;;;6242966;22;20201;-81
2022/10/01 04:41:12;;;;;;;6.07;3.60;;;;;;;;;;6243745;22;20202;-82
2022/10/01 04:43:49;;;;;;;6.33;3.67;;;;;;;;;;6270562;22;20173;-80
2022/10/01 04:46:20;;;;;;;6.30;3.83;;;;;;;;;;6270464;22;20170;-82
2022/10/01 04:48:48;;;;;;;7.40;3.87;;;;;;;;;;6271238;22;20217;-82
2022/10/01 04:51:16;;;;;;;6.37;3.70;;;;;;;;;;6243960;22;20213;-79
2022/10/01 04:53:43;;;;;;;6.33;3.40;;;;;;;;;;6270900;22;20528;-79
2022/10/01 04:56:11;;;;;;;7.18;3.80;;;;;;;;;;6242635;22;20394;-79
2022/10/01 04:58:39;;;;;;;5.90;3.27;;;;;;;;;;6269490;22;20231;-79
2022/10/01 05:01:06;;;;;;;5.70;3.13;;;;;;;;;;6301813;22;20259;-79
2022/10/01 05:03:36;;;;;;;4.60;3.07;;;;;;;;;;6300835;22;20184;-79
2022/10/01 05:06:04;;;;;;;5.17;3.23;;;;;;;;;;6302118;22;20180;-83
2022/10/01 05:08:31;;;;;;;8.10;3.10;;;;;;;;;;6301389;22;20522;-79
2022/10/01 05:11:00;;;;;;;3.70;2.43;;;;;;;;;;6301985;22;20173;-79
2022/10/01 05:13:30;;;;;;;3.80;2.50;;;;;;;;;;6274275;22;20207;-78
2022/10/01 05:15:58;;;;;;;4.40;2.60;;;;;;;;;;6302372;22;20176;-80
2022/10/01 05:18:26;;;;;;;4.37;2.20;;;;;;;;;;6298386;22;20197;-80
2022/10/01 05:20:55;;;;;;;2.93;2.27;;;;;;;;;;6301870;22;20173;-80
2022/10/01 05:23:22;;;;;;;3.40;2.40;;;;;;;;;;6301363;22;20517;-80
2022/10/01 05:25:52;;;;;;;2.83;1.90;;;;;;;;;;6300852;22;20228;-81
2022/10/01 05:28:19;;;;;;;3.57;2.37;;;;;;;;;;6301402;22;20253;-80
2022/10/01 05:30:50;;;;;;;3.10;2.30;;;;;;;;;;6302394;22;20165;-80
2022/10/01 05:33:17;;;;;;;2.90;1.93;;;;;;;;;;6301059;22;20173;-78
2022/10/01 05:35:44;;;;;;;2.57;1.80;;;;;;;;;;6302266;22;20184;-81
2022/10/01 05:38:13;;;;;;;3.13;1.70;;;;;;;;;;6301911;22;20675;-78
2022/10/01 05:40:41;;;;;;;4.53;1.80;;;;;;;;;;6272924;22;20624;-79
2022/10/01 05:43:08;;;;;;;2.93;1.87;;;;;;;;;;6301223;22;20598;-78
2022/10/01 05:45:36;;;;;;;1.63;1.20;;;;;;;;;;6300096;22;20185;-80
2022/10/01 05:48:05;;;;;;;7.60;1.37;;;;;;;;;;6303072;22;20197;-80
2022/10/01 05:50:33;;;;;;;4.10;1.50;;;;;;;;;;6303113;22;20177;-81
2022/10/01 05:53:01;;;;;;;2.07;1.30;;;;;;;;;;6304211;22;20223;-80
2022/10/01 05:55:33;;;;;;;2.20;1.37;;;;;;;;;;6302576;22;20669;-80
2022/10/01 05:58:01;;;;;;;1.10;0.93;;;;;;;;;;6286887;22;20202;-81
2022/10/01 06:00:29;;;;;;;1.73;1.37;;;;;;;;;;6272405;22;20600;-79
2022/10/01 06:02:56;;;;;;;2.10;1.33;;;;;;;;;;6269772;22;20179;-78
2022/10/01 06:05:24;;;;;;;1.97;1.30;;;;;;;;;;6271040;22;20643;-80
2022/10/01 06:07:52;;;;;;;1.40;1.13;;;;;;;;;;6243075;22;20251;-80
2022/10/01 06:10:19;;;;;;;2.97;1.23;;;;;;;;;;6271170;22;20201;-80
2022/10/01 06:12:48;;;;;;;1.77;1.27;;;;;;;;;;6271628;22;20177;-78
2022/10/01 06:15:16;;;;;;;1.60;1.20;;;;;;;;;;6272179;22;20636;-82
2022/10/01 06:17:44;;;;;;;1.10;0.90;;;;;;;;;;6245603;22;20247;-79
2022/10/01 06:20:19;;;;;;;2.47;1.03;;;;;;;;;;6272772;22;20282;-79
2022/10/01 06:22:53;;;;;;;1.77;1.10;;;;;;;;;;6243063;22;20181;-79
2022/10/01 06:25:20;;;;;;;1.20;0.90;;;;;;;;;;6268059;22;20627;-79
2022/10/01 06:27:54;;;;;;;1.33;1.00;;;;;;;;;;6268517;22;20282;-80
2022/10/01 06:30:21;;;;;;;1.27;1.10;;;;;;;;;;6272820;22;20181;-79
2022/10/01 06:32:49;;;;;;;3.00;1.00;;;;;;;;;;6243648;22;20174;-77
2022/10/01 06:35:16;;;;;;;1.50;1.00;;;;;;;;;;6272777;22;20180;-76
2022/10/01 06:37:45;;;;;;;1.57;1.13;;;;;;;;;;6271622;22;20529;-78
2022/10/01 06:40:12;;;;;;;1.60;1.00;;;;;;;;;;6243653;22;20268;-77
2022/10/01 06:42:40;;;;;;;1.07;0.77;;;;;;;;;;6271791;22;20174;-79
2022/10/01 06:45:10;;;;;;;2.90;1.00;;;;;;;;;;6241370;22;20276;-77
2022/10/01 06:47:38;;;;;;;3.37;1.13;;;;;;;;;;6268388;22;20201;-79
2022/10/01 06:50:05;;;;;;;3.40;1.20;;;;;;;;;;6268776;22;20208;-78
2022/10/01 06:55:27;;;;;;;2.30;1.00;;;;;;;;;;6237253;22;20169;-79
2022/10/01 06:57:57;;;;;;;1.33;1.00;;;;;;;;;;6268569;22;20210;-78
2022/10/01 07:00:26;;;;;;;1.00;0.90;;;;;;;;;;6243843;22;20205;-79
2022/10/01 07:02:54;;;;;;;1.10;0.90;;;;;;;;;;6272103;22;20184;-80
2022/10/01 07:05:22;;;;;;;1.13;0.93;;;;;;;;;;6270664;22;20632;-78
2022/10/01 07:07:49;;;;;;;2.47;1.37;;;;;;;;;;6244606;22;20243;-79
2022/10/01 07:10:19;;;;;;;1.40;1.00;;;;;;;;;;6268624;22;20188;-78
2022/10/01 07:12:49;;;;;;;1.10;0.80;;;;;;;;;;6270426;22;20170;-78
2022/10/01 07:15:17;;;;;;;2.40;0.83;;;;;;;;;;6271389;22;20223;-79
2022/10/01 07:17:49;;;;;;;1.80;1.20;;;;;;;;;;6272206;22;20200;-79
2022/10/01 07:20:17;;;;;;;1.20;1.00;;;;;;;;;;6242289;22;20276;-77
2022/10/01 07:22:47;;;;;;;1.37;1.00;;;;;;;;;;6268927;22;20174;-78
2022/10/01 07:25:15;;;;;;;2.00;1.07;;;;;;;;;;6272018;22;20178;-80
2022/10/01 07:27:44;;;;;;;1.67;1.10;;;;;;;;;;6273386;22;20200;-85
2022/10/01 07:30:12;;;;;;;2.10;1.50;;;;;;;;;;6277552;22;20176;-86
2022/10/01 07:32:53;;;;;;;2.03;1.60;;;;;;;;;;6253430;22;20970;-85
2022/10/01 07:35:42;;;;;;;3.23;2.00;;;;;;;;;;6292291;22;20173;-88
2022/10/01 07:38:12;;;;;;;5.60;3.20;;;;;;;;;;6278444;22;20247;-87
2022/10/01 07:40:41;;;;;;;2.93;1.53;;;;;;;;;;6247626;22;20202;-85
2022/10/01 07:43:13;;;;;;;6.90;4.40;;;;;;;;;;6275063;22;20173;-87
2022/10/01 07:45:40;;;;;;;5.90;3.33;;;;;;;;;;6277073;22;20220;-84
2022/10/01 07:48:09;;;;;;;6.90;3.20;;;;;;;;;;6247482;22;20208;-86
2022/10/01 07:50:37;;;;;;;8.97;4.47;;;;;;;;;;6249157;22;20174;-86
2022/10/01 07:53:06;;;;;;;4.53;2.90;;;;;;;;;;6245768;22;20254;-84
2022/10/01 07:55:35;;;;;;;6.30;3.37;;;;;;;;;;6271834;22;20201;-83
2022/10/01 07:58:04;;;;;;;5.20;3.10;;;;;;;;;;6272870;22;20244;-83
2022/10/01 08:00:34;;;;;;;6.17;3.07;;;;;;;;;;6245007;22;20353;-83
2022/10/01 08:03:05;;;;;;;6.00;3.27;;;;;;;;;;6271413;22;20177;-84
2022/10/01 08:05:34;;;;;;;4.00;2.33;;;;;;;;;;6244121;22;20252;-80
2022/10/01 08:08:08;;;;;;;4.93;2.83;;;;;;;;;;6270470;22;20277;-80
2022/10/01 08:10:40;;;;;;;4.93;3.47;;;;;;;;;;6271623;22;20154;-81
2022/10/01 08:13:13;;;;;;;4.10;2.70;;;;;;;;;;6270204;22;20586;-81
2022/10/01 08:15:41;;;;;;;5.10;3.50;;;;;;;;;;6267400;22;20158;-83
2022/10/01 08:18:09;;;;;;;9.13;4.10;;;;;;;;;;6240288;22;20680;-81
2022/10/01 08:20:38;;;;;;;9.07;4.10;;;;;;;;;;6270136;22;20264;-81
2022/10/01 08:23:06;;;;;;;4.80;3.00;;;;;;;;;;6267890;22;20177;-81
2022/10/01 08:25:35;;;;;;;6.17;3.57;;;;;;;;;;6270352;22;20177;-81
2022/10/01 08:28:05;;;;;;;4.03;1.90;;;;;;;;;;6218748;22;20201;-83
2022/10/01 08:30:33;;;;;;;6.20;2.80;;;;;;;;;;6271413;22;20189;-82
2022/10/01 08:33:09;;;;;;;5.33;2.83;;;;;;;;;;6272103;22;20261;-82
2022/10/01 08:35:40;;;;;;;2.23;1.50;;;;;;;;;;6245121;22;20205;-82
2022/10/01 08:38:18;;;;;;;3.17;2.03;;;;;;;;;;6271050;22;20194;-84
2022/10/01 08:40:47;;;;;;;4.33;2.40;;;;;;;;;;6272997;22;20745;-84
2022/10/01 08:43:26;;;;;;;8.87;4.73;;;;;;;;;;6271932;22;20199;-83
2022/10/01 08:45:59;;;;;;;4.90;2.37;;;;;;;;;;6246146;22;20182;-85
2022/10/01 08:48:31;;;;;;;3.33;1.90;;;;;;;;;;6273428;22;20224;-83
2022/10/01 08:51:02;;;;;;;16.50;5.27;;;;;;;;;;6270758;22;20181;-84
2022/10/01 08:53:34;;;;;;;3.07;1.40;;;;;;;;;;6270258;22;20158;-86
2022/10/01 08:56:13;;;;;;;1.67;1.20;;;;;;;;;;6244848;22;20175;-82
2022/10/01 08:58:47;;;;;;;0.50;0.50;;;;;;;;;;6269546;22;20207;-83
2022/10/01 09:01:21;;;;;;;1.63;1.10;;;;;;;;;;6241656;22;20200;-83
2022/10/01 09:03:49;;;;;;;1.83;1.00;;;;;;;;;;6271157;22;20178;-82
2022/10/01 09:06:20;;;;;;;2.73;0.93;;;;;;;;;;6242650;22;20178;-85
2022/10/01 09:09:24;;;;;;;2.07;0.70;;;;;;;;;;6277016;22;20201;-83
2022/10/01 09:15:10;;;;;;;0.50;0.40;;;;;;;;;;6277870;22;20190;-85
2022/10/01 09:17:43;;;;;;;0.40;0.40;;;;;;;;;;6271899;22;20193;-84
2022/10/01 09:20:13;;;;;;;0.60;0.40;;;;;;;;;;6217635;22;20543;-82
2022/10/01 09:22:41;;;;;;;0.77;0.27;;;;;;;;;;6271302;22;20180;-82
2022/10/01 09:25:13;;;;;;;0.30;0.20;;;;;;;;;;6268940;22;20990;-82
2022/10/01 09:27:41;;;;;;;0.37;0.20;;;;;;;;;;6241383;22;20194;-82
2022/10/01 09:30:17;;;;;;;1.47;0.57;;;;;;;;;;6246393;22;20178;-83
2022/10/01 09:32:48;;;;;;;1.57;0.70;;;;;;;;;;6243077;22;20197;-82
2022/10/01 09:35:21;;;;;;;0.23;0.20;;;;;;;;;;6269744;22;20169;-82
2022/10/01 09:37:53;;;;;;;0.40;0.20;;;;;;;;;;6241170;22;20193;-82
2022/10/01 09:40:27;;;;;;;1.17;0.70;;;;;;;;;;6268602;22;20595;-80
2022/10/01 09:42:55;;;;;;;0.43;0.33;;;;;;;;;;6268364;22;20552;-80
2022/10/01 09:45:24;;;;;;;1.63;0.60;;;;;;;;;;6270549;22;20178;-85
2022/10/01 09:47:53;;;;;;;3.13;0.57;;;;;;;;;;6273629;22;20213;-82
2022/10/01 09:50:23;;;;;;;0.90;0.23;;;;;;;;;;6246716;22;20586;-87
2022/10/01 09:52:53;;;;;;;0.70;0.40;;;;;;;;;;6272228;22;20173;-84
2022/10/01 09:55:24;;;;;;;0.90;0.43;;;;;;;;;;6272388;22;20184;-82
2022/10/01 09:57:53;;;;;;;1.20;0.40;;;;;;;;;;6268869;22;20201;-83
2022/10/01 10:00:26;;;;;;;1.50;0.50;;;;;;;;;;6220644;22;20194;-83
2022/10/01 10:02:54;;;;;;;0.20;0.20;;;;;;;;;;6271906;22;20189;-83
2022/10/01 10:05:23;;;;;;;1.73;0.90;;;;;;;;;;6272635;22;20177;-85
2022/10/01 10:07:54;;;;;;;3.40;0.20;;;;;;;;;;6274747;22;20223;-83
2022/10/01 10:10:27;;;;;;;0.47;0.30;;;;;;;;;;6277070;22;20212;-84
2022/10/01 10:12:59;;;;;;;0.80;0.30;;;;;;;;;;6287821;22;20169;-83
2022/10/01 10:15:30;;;;;;;0.90;0.50;;;;;;;;;;6279329;22;20169;-82
2022/10/01 10:17:58;;;;;;;0.90;0.63;;;;;;;;;;6273311;22;20202;-83
2022/10/01 10:20:28;;;;;;;1.30;0.20;;;;;;;;;;6272469;22;20538;-79
2022/10/01 10:23:16;;;;;;;1.13;0.40;;;;;;;;;;6273103;22;20180;-82
2022/10/01 10:25:44;;;;;;;2.33;1.10;;;;;;;;;;6271456;22;20608;-80
2022/10/01 10:28:27;;;;;;;4.50;0.73;;;;;;;;;;6246581;22;20225;-82
2022/10/01 10:30:58;;;;;;;3.33;0.90;;;;;;;;;;6275907;22;20158;-84
2022/10/01 10:33:26;;;;;;;7.97;2.80;;;;;;;;;;6274256;22;20174;-82
2022/10/01 10:36:07;;;;;;;2.00;0.20;;;;;;;;;;6270566;22;20252;-85
2022/10/01 10:38:38;;;;;;;1.40;0.40;;;;;;;;;;6271707;22;20208;-84
2022/10/01 10:41:06;;;;;;;1.13;0.40;;;;;;;;;;6269204;22;20182;-78
2022/10/01 10:43:36;;;;;;;0.33;0.20;;;;;;;;;;6272498;22;20189;-79
2022/10/01 10:46:10;;;;;;;0.93;0.30;;;;;;;;;;6269308;22;20181;-80
2022/10/01 10:48:43;;;;;;;0.93;0.30;;;;;;;;;;6270490;22;20194;-80
2022/10/01 10:51:11;;;;;;;0.50;0.30;;;;;;;;;;6242894;22;20219;-79
2022/10/01 10:53:48;;;;;;;0.93;0.30;;;;;;;;;;6243211;22;20185;-79
2022/10/01 10:56:21;;;;;;;3.47;0.20;;;;;;;;;;6242835;22;20173;-80
2022/10/01 10:58:50;;;;;;;0.97;0.20;;;;;;;;;;6268827;22;20702;-79
2022/10/01 11:01:32;;;;;;;0.50;0.40;;;;;;;;;;6269163;22;20225;-79
2022/10/01 11:04:00;;;;;;;1.47;0.60;;;;;;;;;;6271169;22;20161;-79
2022/10/01 11:06:29;;;;;;;4.30;3.07;;;;;;;;;;6270487;22;20252;-78
2022/10/01 11:09:01;;;;;;;3.17;1.00;;;;;;;;;;6271786;22;20174;-80
2022/10/01 11:11:39;;;;;;;2.37;0.67;;;;;;;;;;6265785;22;20545;-78
2022/10/01 11:14:17;;;;;;;2.33;1.30;;;;;;;;;;6268853;22;20249;-79
2022/10/01 11:16:55;;;;;;;3.87;2.40;;;;;;;;;;6242267;22;20178;-78
2022/10/01 11:19:30;;;;;;;6.37;2.67;;;;;;;;;;6270541;22;20220;-79
2022/10/01 11:22:04;;;;;;;10.90;4.67;;;;;;;;;;6243591;22;20273;-80
2022/10/01 11:24:42;;;;;;;5.10;1.20;;;;;;;;;;6268283;22;20241;-79
2022/10/01 11:27:13;;;;;;;2.43;1.10;;;;;;;;;;6269839;22;20202;-77
2022/10/01 11:29:48;;;;;;;4.37;1.23;;;;;;;;;;6272444;22;20165;-78
2022/10/01 11:32:32;;;;;;;2.47;1.20;;;;;;;;;;6270567;22;20647;-77
2022/10/01 11:35:12;;;;;;;1.53;0.83;;;;;;;;;;6271665;22;20165;-80
2022/10/01 11:37:47;;;;;;;3.40;1.10;;;;;;;;;;6271771;22;20237;-84
2022/10/01 11:40:17;;;;;;;3.53;1.30;;;;;;;;;;6245481;22;20230;-81
2022/10/01 11:42:46;;;;;;;5.40;1.20;;;;;;;;;;6266238;22;20185;-80
2022/10/01 11:45:17;;;;;;;4.27;1.50;;;;;;;;;;6270602;22;20180;-80
2022/10/01 11:47:49;;;;;;;4.10;0.90;;;;;;;;;;6270586;22;20209;-80
2022/10/01 11:50:18;;;;;;;3.37;1.17;;;;;;;;;;6270965;22;20158;-83
2022/10/01 11:53:16;;;;;;;1.70;1.20;;;;;;;;;;6217045;22;20213;-83
2022/10/01 12:01:22;;;;;;;4.10;1.20;;;;;;;;;;6270512;22;20211;-79
2022/10/01 12:03:58;;;;;;;2.33;1.00;;;;;;;;;;6269950;22;20178;-81
2022/10/01 12:06:31;;;;;;;5.17;1.27;;;;;;;;;;6271411;22;20181;-80
2022/10/01 12:09:01;;;;;;;2.93;1.20;;;;;;;;;;6270347;22;20639;-81
2022/10/01 12:11:31;;;;;;;6.70;2.00;;;;;;;;;;6271528;22;20228;-81
2022/10/01 12:14:03;;;;;;;3.53;1.17;;;;;;;;;;6271397;22;20184;-81
2022/10/01 12:16:38;;;;;;;10.73;6.43;;;;;;;;;;6272534;22;20178;-84
2022/10/01 12:19:12;;;;;;;5.10;2.00;;;;;;;;;;6270082;22;20169;-81
2022/10/01 12:21:42;;;;;;;6.80;3.10;;;;;;;;;;6272859;22;20182;-88
2022/10/01 12:24:21;;;;;;;2.63;1.03;;;;;;;;;;6278827;22;20177;-80
2022/10/01 12:26:56;;;;;;;2.97;0.90;;;;;;;;;;6273092;22;20169;-80
2022/10/01 12:29:28;;;;;;;4.90;1.40;;;;;;;;;;6271655;22;20157;-81
2022/10/01 12:32:00;;;;;;;3.63;1.40;;;;;;;;;;6272593;22;20475;-81
2022/10/01 12:34:38;;;;;;;1.73;0.80;;;;;;;;;;6272489;22;20612;-86
2022/10/01 12:37:11;;;;;;;7.13;1.80;;;;;;;;;;6275185;22;20197;-87
2022/10/01 12:39:50;;;;;;;6.07;1.03;;;;;;;;;;6225339;22;20178;-87
2022/10/01 12:42:36;;;;;;;5.13;1.20;;;;;;;;;;6236726;22;20200;-81
2022/10/01 12:45:11;;;;;;;5.23;1.13;;;;;;;;;;6257883;22;20193;-86
2022/10/01 12:47:43;;;;;;;5.47;1.17;;;;;;;;;;6245614;22;20301;-86
2022/10/01 12:50:28;;;;;;;3.77;1.13;;;;;;;;;;6249761;22;20257;-87
2022/10/01 12:53:04;;;;;;;4.67;1.40;;;;;;;;;;6256565;22;20174;-84
2022/10/01 12:55:45;;;;;;;4.87;1.67;;;;;;;;;;6276898;22;20168;-89
2022/10/01 12:58:18;;;;;;;3.77;1.57;;;;;;;;;;6272972;22;20201;-88
2022/10/01 13:00:51;;;;;;;6.27;1.70;;;;;;;;;;6274952;22;20227;-88
2022/10/01 13:06:39;;;;;;;8.40;2.27;;;;;;;;;;6258511;22;20177;-83
2022/10/01 13:09:22;;;;;;;5.40;1.73;;;;;;;;;;6273799;22;20312;-86
2022/10/01 13:12:07;;;;;;;4.77;1.97;;;;;;;;;;6272491;22;20166;-84
2022/10/01 13:14:38;;;;;;;8.90;2.10;;;;;;;;;;6246949;22;20180;-84
2022/10/01 13:17:10;;;;;;;6.87;2.97;;;;;;;;;;6271544;22;20205;-85
2022/10/01 13:19:41;;;;;;;8.10;2.20;;;;;;;;;;6270625;22;20695;-85
2022/10/01 13:22:15;;;;;;;4.57;1.70;;;;;;;;;;6275619;22;20189;-86
2022/10/01 13:24:49;;;;;;;4.27;2.17;;;;;;;;;;6245461;22;20184;-86
2022/10/01 13:27:24;;;;;;;11.80;2.80;;;;;;;;;;6278105;22;20205;-88
2022/10/01 13:29:57;;;;;;;9.43;2.80;;;;;;;;;;6280598;22;20165;-85
2022/10/01 13:32:26;;;;;;;11.30;2.47;;;;;;;;;;6251842;22;20588;-85
2022/10/01 13:34:55;;;;;;;5.20;2.03;;;;;;;;;;6277813;22;20236;-85
2022/10/01 13:37:32;;;;;;;9.60;2.60;;;;;;;;;;6244502;22;20201;-84
2022/10/01 13:40:02;;;;;;;5.33;2.03;;;;;;;;;;6273118;22;20168;-84
2022/10/01 13:42:31;;;;;;;7.47;2.80;;;;;;;;;;6245807;22;20244;-86
2022/10/01 13:45:02;;;;;;;8.17;2.00;;;;;;;;;;6247529;22;20275;-86
2022/10/01 13:47:32;;;;;;;7.63;2.47;;;;;;;;;;6245785;22;20201;-85
2022/10/01 13:50:03;;;;;;;8.50;2.60;;;;;;;;;;6246451;22;20174;-86
2022/10/01 13:52:32;;;;;;;6.40;2.43;;;;;;;;;;6270877;22;20178;-83
2022/10/01 13:55:00;;;;;;;6.50;2.80;;;;;;;;;;6275953;22;20209;-84
2022/10/01 13:57:36;;;;;;;12.13;3.90;;;;;;;;;;6283157;22;20591;-84
2022/10/01 14:00:22;;;;;;;9.30;4.10;;;;;;;;;;6301799;22;20191;-82
2022/10/01 14:03:07;;;;;;;4.97;2.20;;;;;;;;;;6302782;22;20201;-85
2022/10/01 14:05:39;;;;;;;3.93;2.40;;;;;;;;;;6305305;22;20157;-84
2022/10/01 14:08:23;;;;;;;6.37;2.80;;;;;;;;;;6304614;22;20196;-83
2022/10/01 14:16:31;;;;;;;6.17;2.03;;;;;;;;;;6302745;22;20210;-83
2022/10/01 14:19:00;;;;;;;4.67;2.50;;;;;;;;;;6298637;22;20230;-82
2022/10/01 14:21:48;;;;;;;6.13;2.00;;;;;;;;;;6300953;22;20181;-82
2022/10/01 14:24:28;;;;;;;4.00;1.53;;;;;;;;;;6301309;22;20188;-83
2022/10/01 14:27:01;;;;;;;6.90;1.60;;;;;;;;;;6302737;22;20272;-84
2022/10/01 14:29:44;;;;;;;4.57;1.30;;;;;;;;;;6300493;22;20226;-83
2022/10/01 14:32:19;;;;;;;4.80;1.60;;;;;;;;;;6303677;22;20230;-84
2022/10/01 14:34:53;;;;;;;7.80;1.50;;;;;;;;;;6304252;22;20161;-85
2022/10/01 14:37:23;;;;;;;5.97;1.60;;;;;;;;;;6304212;22;20196;-82
2022/10/01 14:40:01;;;;;;;4.07;1.40;;;;;;;;;;6279751;22;20169;-84
2022/10/01 14:42:29;;;;;;;4.43;1.63;;;;;;;;;;6304424;22;20295;-81
2022/10/01 14:44:59;;;;;;;2.50;1.33;;;;;;;;;;6303656;22;20181;-82
2022/10/01 14:47:34;;;;;;;5.77;1.63;;;;;;;;;;6303430;22;20244;-82
2022/10/01 14:50:09;;;;;;;4.77;1.50;;;;;;;;;;6302507;22;20715;-81
2022/10/01 14:52:36;;;;;;;8.73;2.23;;;;;;;;;;6304037;22;20697;-80
2022/10/01 14:55:06;;;;;;;4.93;1.70;;;;;;;;;;6304134;22;20175;-83
2022/10/01 14:57:35;;;;;;;8.63;2.00;;;;;;;;;;6305406;22;20234;-80
2022/10/01 15:00:07;;;;;;;7.77;2.20;;;;;;;;;;6275027;22;20197;-82
2022/10/01 15:02:35;;;;;;;4.57;1.87;;;;;;;;;;6270587;22;20182;-81
2022/10/01 15:05:02;;;;;;;8.47;2.10;;;;;;;;;;6271817;22;20261;-81
2022/10/01 15:07:33;;;;;;;9.77;2.10;;;;;;;;;;6244912;22;20197;-81
2022/10/01 15:10:06;;;;;;;3.13;1.43;;;;;;;;;;6272364;22;20170;-81
2022/10/01 15:12:40;;;;;;;8.20;1.70;;;;;;;;;;6273300;22;20166;-81
2022/10/01 15:15:18;;;;;;;7.03;2.00;;;;;;;;;;6274027;22;20609;-81
2022/10/01 15:17:48;;;;;;;7.90;2.03;;;;;;;;;;6272091;22;20533;-84
2022/10/01 15:20:17;;;;;;;5.90;1.53;;;;;;;;;;6271738;22;20173;-81
2022/10/01 15:22:45;;;;;;;12.30;2.23;;;;;;;;;;6270068;22;20201;-80
2022/10/01 15:25:18;;;;;;;3.87;1.47;;;;;;;;;;6245395;22;20184;-81
2022/10/01 15:27:45;;;;;;;6.93;1.70;;;;;;;;;;6271025;22;20197;-81